createdAt,value
2017-11-07T00:00:58.462Z,14.33
2017-11-07T00:03:27.126Z,14.13
2017-11-07T00:05:55.454Z,13.93
2017-11-07T00:08:23.014Z,12.53
2017-11-07T00:10:50.542Z,12.63
2017-11-07T00:13:18.837Z,13.00
2017-11-07T00:15:46.347Z,12.67
2017-11-07T00:18:14.688Z,12.23
2017-11-07T00:20:42.638Z,12.90
2017-11-07T00:23:10.918Z,11.60
2017-11-07T00:25:40.002Z,11.13
2017-11-07T00:28:08.898Z,12.30
2017-11-07T00:30:36.405Z,11.40
2017-11-07T00:33:03.939Z,12.27
2017-11-07T00:35:31.506Z,11.32
2017-11-07T00:37:59.034Z,11.30
2017-11-07T00:40:26.567Z,10.73
2017-11-07T00:42:54.094Z,11.00
2017-11-07T00:45:21.614Z,11.25
2017-11-07T00:47:49.134Z,10.70
2017-11-07T00:50:18.195Z,10.23
2017-11-07T00:52:46.479Z,10.47
2017-11-07T00:55:14.006Z,9.97
2017-11-07T00:57:41.570Z,10.67
2017-11-07T01:00:10.460Z,10.07
2017-11-07T01:02:37.988Z,9.53
2017-11-07T01:05:06.415Z,10.17
2017-11-07T01:07:34.702Z,9.20
2017-11-07T01:10:02.226Z,9.40
2017-11-07T01:12:30.555Z,8.17
2017-11-07T01:14:58.079Z,8.90
2017-11-07T01:17:25.607Z,9.80
2017-11-07T01:19:53.551Z,9.13
2017-11-07T01:22:21.086Z,8.80
2017-11-07T01:24:48.611Z,9.10
2017-11-07T01:27:16.183Z,8.90
2017-11-07T01:29:45.222Z,8.47
2017-11-07T01:32:12.766Z,9.05
2017-11-07T01:34:40.320Z,7.60
2017-11-07T01:37:07.843Z,8.73
2017-11-07T01:39:35.382Z,8.33
2017-11-07T01:42:03.709Z,9.25
2017-11-07T01:44:31.235Z,9.10
2017-11-07T01:46:59.502Z,8.07
2017-11-07T01:49:27.449Z,7.50
2017-11-07T01:51:54.970Z,8.00
2017-11-07T01:54:22.478Z,8.30
2017-11-07T01:56:50.027Z,8.20
2017-11-07T01:59:17.558Z,6.90
2017-11-07T02:01:45.087Z,8.27
2017-11-07T02:04:13.414Z,6.97
2017-11-07T02:06:41.711Z,7.13
2017-11-07T02:09:10.572Z,7.57
2017-11-07T02:11:38.506Z,8.03
2017-11-07T02:14:06.015Z,7.13
2017-11-07T02:16:33.535Z,7.20
2017-11-07T02:19:01.102Z,7.10
2017-11-07T02:21:29.414Z,7.50
2017-11-07T02:23:56.947Z,6.87
2017-11-07T02:26:24.531Z,6.80
2017-11-07T02:28:52.034Z,6.90
2017-11-07T02:31:19.535Z,7.07
2017-11-07T02:33:47.063Z,7.00
2017-11-07T02:36:14.579Z,7.12
2017-11-07T02:38:42.095Z,6.63
2017-11-07T02:41:09.634Z,6.80
2017-11-07T02:43:37.134Z,6.95
2017-11-07T02:46:04.667Z,6.80
2017-11-07T02:48:32.198Z,6.43
2017-11-07T02:51:01.211Z,6.60
2017-11-07T02:53:29.145Z,6.73
2017-11-07T02:55:57.443Z,6.50
2017-11-07T02:58:25.441Z,6.35
2017-11-07T03:00:53.404Z,6.25
2017-11-07T03:03:21.742Z,6.23
2017-11-07T03:05:50.034Z,5.93
2017-11-07T03:08:18.341Z,6.57
2017-11-07T03:10:45.862Z,6.20
2017-11-07T03:13:14.137Z,6.00
2017-11-07T03:15:41.667Z,6.30
2017-11-07T03:18:10.347Z,5.93
2017-11-07T03:20:37.858Z,6.30
2017-11-07T03:23:05.355Z,6.60
2017-11-07T03:25:32.906Z,6.03
2017-11-07T03:28:00.436Z,5.80
2017-11-07T03:30:27.987Z,6.25
2017-11-07T03:32:55.522Z,5.12
2017-11-07T03:35:23.026Z,6.10
2017-11-07T03:37:50.550Z,6.00
2017-11-07T03:40:18.886Z,6.43
2017-11-07T03:42:46.386Z,5.90
2017-11-07T03:45:13.915Z,5.90
2017-11-07T03:47:41.443Z,6.00
2017-11-07T03:50:08.973Z,6.25
2017-11-07T03:52:36.482Z,5.70
2017-11-07T03:55:04.043Z,5.35
2017-11-07T03:57:31.551Z,5.63
2017-11-07T03:59:59.818Z,5.50
2017-11-07T04:02:28.126Z,5.70
2017-11-07T04:04:56.027Z,5.43
2017-11-07T04:07:23.549Z,5.80
2017-11-07T04:09:51.080Z,5.13
2017-11-07T04:12:18.998Z,5.30
2017-11-07T04:14:46.579Z,5.35
2017-11-07T04:17:14.127Z,5.20
2017-11-07T04:19:41.669Z,5.75
2017-11-07T04:22:09.198Z,5.20
2017-11-07T04:24:37.510Z,4.97
2017-11-07T04:27:05.012Z,4.60
2017-11-07T04:29:32.547Z,5.20
2017-11-07T04:32:01.095Z,4.80
2017-11-07T04:34:28.609Z,4.70
2017-11-07T04:36:56.104Z,5.17
2017-11-07T04:39:23.678Z,4.68
2017-11-07T04:41:51.210Z,5.40
2017-11-07T04:44:20.073Z,5.45
2017-11-07T04:46:47.607Z,4.60
2017-11-07T04:49:15.110Z,5.17
2017-11-07T04:51:43.410Z,5.30
2017-11-07T04:54:10.938Z,5.07
2017-11-07T04:56:39.948Z,4.27
2017-11-07T04:59:08.245Z,4.90
2017-11-07T05:01:35.799Z,4.55
2017-11-07T05:04:03.310Z,4.60
2017-11-07T05:06:30.802Z,4.80
2017-11-07T05:08:58.770Z,5.07
2017-11-07T05:11:27.062Z,5.00
2017-11-07T05:13:54.573Z,5.20
2017-11-07T05:16:22.095Z,4.37
2017-11-07T05:18:49.667Z,4.30
2017-11-07T05:21:17.179Z,4.30
2017-11-07T05:23:45.874Z,4.70
2017-11-07T05:26:14.918Z,5.03
2017-11-07T05:28:42.430Z,4.30
2017-11-07T05:31:10.714Z,4.37
2017-11-07T05:33:38.644Z,4.40
2017-11-07T05:36:06.162Z,4.07
2017-11-07T05:38:33.731Z,5.07
2017-11-07T05:41:01.246Z,4.27
2017-11-07T05:43:29.543Z,4.37
2017-11-07T05:45:57.094Z,4.93
2017-11-07T05:48:25.385Z,4.25
2017-11-07T05:50:54.426Z,5.00
2017-11-07T05:53:22.026Z,4.30
2017-11-07T05:55:50.322Z,4.80
2017-11-07T05:58:18.215Z,4.40
2017-11-07T06:00:45.770Z,4.60
2017-11-07T06:03:13.694Z,4.43
2017-11-07T06:05:41.966Z,4.37
2017-11-07T06:08:11.052Z,4.10
2017-11-07T06:10:39.358Z,4.30
2017-11-07T06:13:07.695Z,4.12
2017-11-07T06:15:35.648Z,4.03
2017-11-07T06:18:03.187Z,4.03
2017-11-07T06:20:30.710Z,4.20
2017-11-07T06:22:59.010Z,3.80
2017-11-07T06:25:26.551Z,4.25
2017-11-07T06:27:54.471Z,4.37
2017-11-07T06:30:22.811Z,3.92
2017-11-07T06:32:50.341Z,4.33
2017-11-07T06:35:18.615Z,4.30
2017-11-07T06:37:46.154Z,3.92
2017-11-07T06:40:15.162Z,4.30
2017-11-07T06:42:42.667Z,4.30
2017-11-07T06:45:10.196Z,3.97
2017-11-07T06:47:38.086Z,4.17
2017-11-07T06:50:05.636Z,4.60
2017-11-07T06:52:33.635Z,4.40
2017-11-07T06:55:01.141Z,3.90
2017-11-07T06:57:28.671Z,4.15
2017-11-07T06:59:56.223Z,3.60
2017-11-07T07:02:23.759Z,3.60
2017-11-07T07:04:51.294Z,3.60
2017-11-07T07:07:20.268Z,8.43
2017-11-07T07:09:47.801Z,8.27
2017-11-07T07:12:15.346Z,9.83
2017-11-07T07:14:42.921Z,11.27
2017-11-07T07:17:11.282Z,13.48
2017-11-07T07:19:40.174Z,14.53
2017-11-07T07:22:08.471Z,15.65
2017-11-07T07:24:35.991Z,16.02
2017-11-07T07:27:04.257Z,15.50
2017-11-07T07:29:32.180Z,17.67
2017-11-07T07:32:00.858Z,16.60
2017-11-07T07:34:28.404Z,15.77
2017-11-07T07:36:57.155Z,17.33
2017-11-07T07:39:25.091Z,17.83
2017-11-07T07:41:52.632Z,16.30
2017-11-07T07:44:20.947Z,17.03
2017-11-07T07:46:48.480Z,16.60
2017-11-07T07:49:15.991Z,17.00
2017-11-07T07:51:43.995Z,16.87
2017-11-07T07:54:11.506Z,18.00
2017-11-07T07:56:40.161Z,17.47
2017-11-07T07:59:09.214Z,17.30
2017-11-07T08:01:37.534Z,16.17
2017-11-07T08:04:06.990Z,17.60
2017-11-07T08:06:34.594Z,16.53
2017-11-07T08:09:02.542Z,18.05
2017-11-07T08:11:30.107Z,17.00
2017-11-07T08:13:59.478Z,15.73
2017-11-07T08:16:34.039Z,17.35
2017-11-07T08:19:01.622Z,15.00
2017-11-07T08:21:29.942Z,16.23
2017-11-07T08:23:57.535Z,16.77
2017-11-07T08:26:25.077Z,15.07
2017-11-07T08:28:52.598Z,17.07
2017-11-07T08:31:20.610Z,16.23
2017-11-07T08:33:48.737Z,15.50
2017-11-07T08:36:17.044Z,17.25
2017-11-07T08:38:44.555Z,17.20
2017-11-07T08:41:12.098Z,16.20
2017-11-07T08:43:39.641Z,15.60
2017-11-07T08:46:07.188Z,15.30
2017-11-07T08:48:35.155Z,15.53
2017-11-07T08:51:02.686Z,16.70
2017-11-07T08:53:30.986Z,16.17
2017-11-07T08:55:58.546Z,16.50
2017-11-07T08:58:26.075Z,14.73
2017-11-07T09:00:53.598Z,14.63
2017-11-07T09:03:21.147Z,14.00
2017-11-07T09:05:48.679Z,14.70
2017-11-07T09:08:16.217Z,13.93
2017-11-07T09:10:44.560Z,14.63
2017-11-07T09:13:13.574Z,13.70
2017-11-07T09:15:41.126Z,14.60
2017-11-07T09:18:08.679Z,14.20
2017-11-07T09:20:36.194Z,15.17
2017-11-07T09:23:04.859Z,13.97
2017-11-07T09:25:33.265Z,14.30
2017-11-07T09:28:00.794Z,13.03
2017-11-07T09:30:29.694Z,15.07
2017-11-07T09:32:58.015Z,15.90
2017-11-07T09:35:25.567Z,14.17
2017-11-07T09:37:53.079Z,14.17
2017-11-07T09:40:21.423Z,13.80
2017-11-07T09:42:48.937Z,14.13
2017-11-07T09:45:17.230Z,12.50
2017-11-07T09:47:45.171Z,13.40
2017-11-07T09:50:13.473Z,13.80
2017-11-07T09:52:40.995Z,12.60
2017-11-07T09:55:09.344Z,13.00
2017-11-07T09:57:36.856Z,14.13
2017-11-07T10:00:04.401Z,13.57
2017-11-07T10:02:32.366Z,12.93
2017-11-07T10:05:00.662Z,12.60
2017-11-07T10:07:28.213Z,13.38
2017-11-07T10:09:57.102Z,10.97
2017-11-07T10:12:25.435Z,13.17
2017-11-07T10:14:52.966Z,13.57
2017-11-07T10:17:21.314Z,13.13
2017-11-07T10:19:49.614Z,12.10
2017-11-07T10:22:17.935Z,11.73
2017-11-07T10:24:45.482Z,13.27
2017-11-07T10:27:13.029Z,12.57
2017-11-07T10:29:40.595Z,12.75
2017-11-07T10:32:08.353Z,12.17
2017-11-07T10:34:37.250Z,12.80
2017-11-07T10:37:05.530Z,13.17
2017-11-07T10:39:33.089Z,12.50
2017-11-07T10:42:02.111Z,11.35
2017-11-07T10:44:29.634Z,12.70
2017-11-07T10:46:57.193Z,11.33
2017-11-07T10:49:26.222Z,12.57
2017-11-07T10:51:53.731Z,12.27
2017-11-07T10:54:21.282Z,11.33
2017-11-07T10:56:50.331Z,12.70
2017-11-07T10:59:17.847Z,11.63
2017-11-07T11:01:46.903Z,12.10
2017-11-07T11:04:15.781Z,11.38
2017-11-07T11:06:43.331Z,12.43
2017-11-07T11:09:14.715Z,12.37
2017-11-07T11:11:42.611Z,11.97
2017-11-07T11:14:10.911Z,11.60
2017-11-07T11:16:45.318Z,10.90
2017-11-07T11:19:13.830Z,11.83
2017-11-07T11:21:41.344Z,12.33
2017-11-07T11:24:09.295Z,12.23
2017-11-07T11:26:37.578Z,10.80
2017-11-07T11:29:06.527Z,11.12
2017-11-07T11:31:34.094Z,11.25
2017-11-07T11:34:03.235Z,11.40
2017-11-07T11:36:30.740Z,11.03
2017-11-07T11:38:58.294Z,11.38
2017-11-07T11:41:25.907Z,10.73
2017-11-07T11:43:53.826Z,11.13
2017-11-07T11:46:21.387Z,11.00
2017-11-07T11:48:48.946Z,11.73
2017-11-07T11:51:16.867Z,11.05
2017-11-07T11:53:45.924Z,10.47
2017-11-07T11:56:13.980Z,10.10
2017-11-07T11:58:41.499Z,10.80
2017-11-07T12:01:09.916Z,11.10
2017-11-07T12:03:37.482Z,10.40
2017-11-07T12:06:05.078Z,9.83
2017-11-07T12:08:33.402Z,9.57
2017-11-07T12:11:01.340Z,10.00
2017-11-07T12:13:29.262Z,10.02
2017-11-07T12:15:59.106Z,11.40
2017-11-07T12:18:26.710Z,9.80
2017-11-07T12:20:54.259Z,10.60
2017-11-07T12:23:21.842Z,10.23
2017-11-07T12:25:49.778Z,9.88
2017-11-07T12:28:17.715Z,11.77
2017-11-07T12:30:45.271Z,10.50
2017-11-07T12:33:12.866Z,9.68
2017-11-07T12:35:40.391Z,9.57
2017-11-07T12:38:09.222Z,7.10
2017-11-07T12:40:36.738Z,7.95
2017-11-07T12:43:04.267Z,8.20
2017-11-07T12:45:31.816Z,8.43
2017-11-07T12:47:59.342Z,6.70
2017-11-07T12:50:38.674Z,6.75
2017-11-07T12:53:06.955Z,7.00
2017-11-07T12:55:35.272Z,6.03
2017-11-07T12:58:03.203Z,9.75
2017-11-07T13:00:31.496Z,8.20
2017-11-07T13:02:59.006Z,8.18
2017-11-07T13:05:28.683Z,9.17
2017-11-07T13:07:56.355Z,8.63
2017-11-07T13:10:23.871Z,8.32
2017-11-07T13:12:52.282Z,7.97
2017-11-07T13:15:19.806Z,8.57
2017-11-07T13:17:50.425Z,8.45
2017-11-07T13:20:19.103Z,8.70
2017-11-07T13:22:47.397Z,8.53
2017-11-07T13:25:15.691Z,8.10
2017-11-07T13:27:44.019Z,9.00
2017-11-07T13:30:11.548Z,8.17
2017-11-07T13:32:39.071Z,7.90
2017-11-07T13:35:07.402Z,7.70
2017-11-07T13:37:35.678Z,7.40
2017-11-07T13:40:03.191Z,8.10
2017-11-07T13:42:31.126Z,8.27
2017-11-07T13:44:58.627Z,8.67
2017-11-07T13:47:26.539Z,8.40
2017-11-07T13:49:54.145Z,7.93
2017-11-07T13:52:21.691Z,8.53
2017-11-07T13:54:49.963Z,8.33
2017-11-07T13:57:17.515Z,7.97
2017-11-07T13:59:45.027Z,9.10
2017-11-07T14:02:12.527Z,8.63
2017-11-07T14:04:40.460Z,7.93
2017-11-07T14:07:07.994Z,7.93
2017-11-07T14:09:36.282Z,8.30
2017-11-07T14:12:05.212Z,8.80
2017-11-07T14:14:33.148Z,9.45
2017-11-07T14:17:02.031Z,8.13
2017-11-07T14:19:31.114Z,8.30
2017-11-07T14:21:59.990Z,7.20
2017-11-07T14:24:28.871Z,8.40
2017-11-07T14:26:56.836Z,8.40
2017-11-07T14:29:24.770Z,7.43
2017-11-07T14:31:53.654Z,7.87
2017-11-07T14:34:21.995Z,7.07
2017-11-07T14:36:50.296Z,7.40
2017-11-07T14:39:18.281Z,7.20
2017-11-07T14:41:45.850Z,7.00
2017-11-07T14:44:13.503Z,7.80
2017-11-07T14:46:41.048Z,6.30
2017-11-07T14:49:08.599Z,7.13
2017-11-07T14:51:36.912Z,7.20
2017-11-07T14:54:05.232Z,8.00
2017-11-07T14:56:33.576Z,7.30
2017-11-07T14:59:01.078Z,6.90
2017-11-07T15:01:29.710Z,6.80
2017-11-07T15:03:57.259Z,6.33
2017-11-07T15:06:25.930Z,7.23
2017-11-07T15:08:53.432Z,7.17
2017-11-07T15:11:21.374Z,7.47
2017-11-07T15:13:50.046Z,6.65
2017-11-07T15:16:17.610Z,6.57
2017-11-07T15:18:45.158Z,6.20
2017-11-07T15:21:12.663Z,6.97
2017-11-07T15:23:40.186Z,6.30
2017-11-07T15:26:07.768Z,6.57
2017-11-07T15:28:35.275Z,6.20
2017-11-07T15:31:03.594Z,6.62
2017-11-07T15:33:31.156Z,7.30
2017-11-07T15:35:58.690Z,7.00
2017-11-07T15:38:26.199Z,6.65
2017-11-07T15:40:53.830Z,6.30
2017-11-07T15:43:21.756Z,6.33
2017-11-07T15:45:50.043Z,6.43
2017-11-07T15:48:18.358Z,6.70
2017-11-07T15:50:45.904Z,6.80
2017-11-07T15:53:13.439Z,6.53
2017-11-07T15:55:41.856Z,6.37
2017-11-07T15:58:10.735Z,6.10
2017-11-07T16:00:38.308Z,6.70
2017-11-07T16:03:05.855Z,6.17
2017-11-07T16:05:33.843Z,7.03
2017-11-07T16:08:02.139Z,7.07
2017-11-07T16:10:30.088Z,5.73
2017-11-07T16:12:59.121Z,6.30
2017-11-07T16:15:27.422Z,6.20
2017-11-07T16:17:55.835Z,5.78
2017-11-07T16:20:23.360Z,6.73
2017-11-07T16:22:51.931Z,5.53
2017-11-07T16:25:21.015Z,6.70
2017-11-07T16:27:48.940Z,5.93
2017-11-07T16:30:16.449Z,6.80
2017-11-07T16:32:43.981Z,6.50
2017-11-07T16:35:11.494Z,6.45
2017-11-07T16:37:39.399Z,6.40
2017-11-07T16:40:06.966Z,5.95
2017-11-07T16:42:34.494Z,6.05
2017-11-07T16:45:01.998Z,5.93
2017-11-07T16:47:29.614Z,5.90
2017-11-07T16:49:57.118Z,5.90
2017-11-07T16:52:24.651Z,5.93
2017-11-07T16:54:52.205Z,5.05
2017-11-07T16:57:20.514Z,5.87
2017-11-07T16:59:48.414Z,5.40
2017-11-07T17:02:17.137Z,5.50
2017-11-07T17:04:44.638Z,5.20
2017-11-07T17:07:12.174Z,5.97
2017-11-07T17:09:39.734Z,5.20
2017-11-07T17:12:07.238Z,5.72
2017-11-07T17:14:35.912Z,5.63
2017-11-07T17:17:03.838Z,5.10
2017-11-07T17:19:31.366Z,5.00
2017-11-07T17:22:00.019Z,5.60
2017-11-07T17:24:27.573Z,5.30
2017-11-07T17:26:56.611Z,5.47
2017-11-07T17:29:24.538Z,5.12
2017-11-07T17:31:53.604Z,6.20
2017-11-07T17:34:21.917Z,5.00
2017-11-07T17:36:49.851Z,5.12
2017-11-07T17:39:17.819Z,5.37
2017-11-07T17:41:46.130Z,5.60
2017-11-07T17:44:13.635Z,4.47
2017-11-07T17:46:41.590Z,5.30
2017-11-07T17:49:09.915Z,4.77
2017-11-07T17:51:37.460Z,4.97
2017-11-07T17:54:05.046Z,5.43
2017-11-07T17:56:32.993Z,4.80
2017-11-07T17:59:00.534Z,5.00
2017-11-07T18:01:28.086Z,4.50
2017-11-07T18:03:55.610Z,5.43
2017-11-07T18:06:23.554Z,4.87
2017-11-07T18:08:51.103Z,4.85
2017-11-07T18:11:19.401Z,5.50
2017-11-07T18:13:46.915Z,4.70
2017-11-07T18:16:15.570Z,5.10
2017-11-07T18:18:43.842Z,4.40
2017-11-07T18:21:11.767Z,4.55
2017-11-07T18:23:40.083Z,5.20
2017-11-07T18:26:08.359Z,4.70
2017-11-07T18:28:35.890Z,4.53
2017-11-07T18:31:04.554Z,4.93
2017-11-07T18:33:32.057Z,5.23
2017-11-07T18:35:59.585Z,4.57
2017-11-07T18:38:27.151Z,4.70
2017-11-07T18:40:54.699Z,4.53
2017-11-07T18:43:22.200Z,4.60
2017-11-07T18:45:49.758Z,4.90
2017-11-07T18:48:17.286Z,4.87
2017-11-07T18:50:44.824Z,5.60
2017-11-07T18:53:12.394Z,5.05
2017-11-07T18:55:39.930Z,5.40
2017-11-07T18:58:08.599Z,5.00
2017-11-07T19:00:36.928Z,5.03
2017-11-07T19:03:04.430Z,4.77
2017-11-07T19:05:33.378Z,5.13
2017-11-07T19:08:01.315Z,4.50
2017-11-07T19:10:30.023Z,4.50
2017-11-07T19:12:57.895Z,5.10
2017-11-07T19:15:25.427Z,4.63
2017-11-07T19:17:52.971Z,4.12
2017-11-07T19:20:21.271Z,4.72
2017-11-07T19:22:48.799Z,4.60
2017-11-07T19:25:17.104Z,4.35
2017-11-07T19:27:44.654Z,4.27
2017-11-07T19:30:13.014Z,4.03
2017-11-07T19:32:41.303Z,4.20
2017-11-07T19:35:09.203Z,4.40
2017-11-07T19:37:36.731Z,4.80
2017-11-07T19:40:05.034Z,4.17
2017-11-07T19:42:32.603Z,4.80
2017-11-07T19:45:00.140Z,5.00
2017-11-07T19:47:27.967Z,4.75
2017-11-07T19:49:55.499Z,4.32
2017-11-07T19:52:23.056Z,4.60
2017-11-07T19:54:50.584Z,4.10
2017-11-07T19:57:18.111Z,4.67
2017-11-07T19:59:46.435Z,4.35
2017-11-07T20:02:13.986Z,4.85
2017-11-07T20:04:41.502Z,4.85
2017-11-07T20:07:09.030Z,4.55
2017-11-07T20:09:37.310Z,4.35
2017-11-07T20:12:04.839Z,4.03
2017-11-07T20:14:32.419Z,4.60
2017-11-07T20:16:59.984Z,3.90
2017-11-07T20:19:27.986Z,4.30
2017-11-07T20:21:55.553Z,4.27
2017-11-07T20:24:23.848Z,4.40
2017-11-07T20:26:52.150Z,4.47
2017-11-07T20:29:20.911Z,5.18
2017-11-07T20:31:49.206Z,4.90
2017-11-07T20:34:16.767Z,4.40
2017-11-07T20:36:44.349Z,4.00
2017-11-07T20:39:12.287Z,4.72
2017-11-07T20:41:39.829Z,4.85
2017-11-07T20:44:07.793Z,4.97
2017-11-07T20:46:36.099Z,5.90
2017-11-07T20:49:04.412Z,5.65
2017-11-07T20:51:32.374Z,5.80
2017-11-07T20:54:00.032Z,5.70
2017-11-07T20:56:29.466Z,6.00
2017-11-07T20:58:57.026Z,5.40
2017-11-07T21:01:25.115Z,6.20
2017-11-07T21:03:53.116Z,5.60
2017-11-07T21:06:20.698Z,5.93
2017-11-07T21:08:48.278Z,6.00
2017-11-07T21:11:15.825Z,6.83
2017-11-07T21:13:43.747Z,5.60
2017-11-07T21:16:12.068Z,5.90
2017-11-07T21:18:40.964Z,5.97
2017-11-07T21:21:08.499Z,5.90
2017-11-07T21:23:36.159Z,5.90
2017-11-07T21:26:03.712Z,6.67
2017-11-07T21:28:31.260Z,6.10
2017-11-07T21:30:58.844Z,6.68
2017-11-07T21:33:27.516Z,5.60
2017-11-07T21:35:55.858Z,6.32
2017-11-07T21:38:24.532Z,6.30
2017-11-07T21:40:52.069Z,5.77
2017-11-07T21:43:19.663Z,6.45
2017-11-07T21:45:47.203Z,5.90
2017-11-07T21:48:14.792Z,5.85
2017-11-07T21:50:42.360Z,5.50
2017-11-07T21:53:10.676Z,5.83
2017-11-07T21:55:38.233Z,4.80
2017-11-07T21:58:06.556Z,5.32
2017-11-07T22:00:34.102Z,5.30
2017-11-07T22:03:02.784Z,5.10
2017-11-07T22:05:31.255Z,5.27
2017-11-07T22:07:58.811Z,5.53
2017-11-07T22:10:27.166Z,4.72
2017-11-07T22:12:55.498Z,5.65
2017-11-07T22:15:23.784Z,5.80
2017-11-07T22:18:11.140Z,4.77
2017-11-07T22:20:40.043Z,5.00
2017-11-07T22:23:13.218Z,5.40
2017-11-07T22:25:43.451Z,5.60
2017-11-07T22:28:10.979Z,5.10
2017-11-07T22:30:38.907Z,5.82
2017-11-07T22:33:06.806Z,4.77
2017-11-07T22:35:34.722Z,4.67
2017-11-07T22:38:03.414Z,5.20
2017-11-07T22:40:32.082Z,4.50
2017-11-07T22:42:59.670Z,5.40
2017-11-07T22:45:28.005Z,4.97
2017-11-07T22:47:56.302Z,4.37
2017-11-07T22:50:23.819Z,4.90
2017-11-07T22:52:53.195Z,5.13
2017-11-07T22:55:21.490Z,5.20
2017-11-07T22:57:49.004Z,5.33
2017-11-07T23:00:17.696Z,4.70
2017-11-07T23:02:45.199Z,4.70
2017-11-07T23:05:12.702Z,4.23
2017-11-07T23:07:41.800Z,4.50
2017-11-07T23:10:09.308Z,4.50
2017-11-07T23:12:36.851Z,4.10
2017-11-07T23:15:04.791Z,4.40
2017-11-07T23:17:32.321Z,4.60
2017-11-07T23:19:59.855Z,4.30
2017-11-07T23:22:27.401Z,4.97
2017-11-07T23:24:54.941Z,4.90
2017-11-07T23:27:22.471Z,4.60
2017-11-07T23:29:50.786Z,4.65
2017-11-07T23:32:18.335Z,4.97
2017-11-07T23:34:45.863Z,4.50
2017-11-07T23:37:13.817Z,4.13
2017-11-07T23:39:41.352Z,4.47
2017-11-07T23:42:08.897Z,4.00
2017-11-07T23:44:36.851Z,4.67
2017-11-07T23:47:05.122Z,3.97
2017-11-07T23:49:32.630Z,4.90
2017-11-07T23:52:00.177Z,4.82
2017-11-07T23:54:28.471Z,4.43
2017-11-07T23:56:55.972Z,4.83
2017-11-07T23:59:23.521Z,4.47
